GOOY

Léopold Sédar Senghor International Airport

Dakar, Senegal
METAR GOOY 182000Z 36006KT CAVOK 21/18 Q1012
Observed Flight Rules
Dec-18 @ 20:00 UTC (25 minutes ago) Visual Flight Rules
Wind Visibility Clouds
360° at 6 knots 10,000+ meters
  • Clear skies
Temperatures Readings
Current 21°C / 70°F
Dewpoint 18°C / 64°F
Humidity 83%
Altimeter 29.88" Hg
Pressure 1012 hPa
Elevation 24
METAR GOOY 182000Z 36006KT CAVOK 21/18 Q1012
Observed Flight Rules
Dec-18 @ 20:00 UTC
(25 minutes ago)
VFR
Wind Visibility
360° at 6 knots 10,000+ meters
Clouds
  • Clear skies
Temperature Dewpoint
21°C / 70°F 18°C / 64°F
Humidity Altimeter Pressure
83% 29.88" Hg 1012 hPa